Historyczne dane pomiarowe

Dodano dane terminowe – wersja testowa.

Dane z okresu 1951-2019

Wersja bazy: 1.34 [2019-03-16, lista zmian], aktualizacja planowana na 2019-04-15

Dane meteo z obszaru Polski uzyskane na podstawie danych udostępnionych przez Instytut Meteorologii i Gospodarki Wodnej – Państwowy Instytut Badawczy.

 

Wybierz Datę:    

       

TemperaturaWilgotnośćWiatrCiśnienieOpadyŚniegCzas trwania zjawisk
 Stacja t tx tn tng RH VA  wxwx mslp ppp RRR   cm mm wxwxwxwxwxwxwx
1961-08-14 14.8 19.2 11.1- 78.5- 3.7 0.0---- 0.0------------
1961-08-13 14.0 17.9 12.8- 90.8- 8.0 0.7---- 8.2------------
1961-08-12 18.7 22.4 17.6- 87.0- 7.3 0.0---- 7.5------------
1961-08-11 23.5 31.4 17.6- 77.5- 4.3 0.7---- 0.0------------
1961-08-10 23.1 29.0 17.9- 83.5- 7.0 0.3---- 0.0------------
1961-08-09 22.7 28.8 13.9- 71.0- 3.7 0.7---- 13.5------------
1961-08-08 19.0 22.4 16.1- 78.5- 6.0 0.3---- 0.0------------
1961-08-07 23.2 30.2 18.7- 69.8- 3.0 0.7---- 0.2------------
1961-08-06 23.8 30.2 13.4- 71.3- 0.0 0.7---- 0.0------------
1961-08-05 18.3 23.8 14.2- 74.3- 4.7 0.7---- 0.0------------
1961-08-04 16.9 21.3 10.1- 80.0- 3.3 0.3---- 0.0------------
1961-08-03 18.2 22.8 13.9- 80.0- 8.0 1.0---- 0.9------------
1961-08-02 19.4 26.0 9.7- 65.3- 1.3 0.3---- 0.0------------
1961-08-01 14.9 19.8 12.1- 76.8- 5.3 1.3---- 0.0------------
1961-07-31 14.6 18.5 12.2- 84.0- 6.7 1.3---- 0.0------------
1961-07-30 13.5 14.7 12.6- 98.0- 8.0 0.3---- 22.8------------
1961-07-29 14.3 18.9 12.6- 95.5- 8.0 0.3---- 13.4------------
1961-07-28 20.7 27.5 16.7- 71.5- 6.7 1.3---- 7.2------------
1961-07-27 21.8 26.4 12.6- 57.0- 4.3 1.7---- 0.0------------
1961-07-26 16.7 21.4 12.3- 74.0- 8.0 1.3---- 0.0------------
1961-07-25 14.9 18.7 8.6- 70.5- 5.7 0.3---- 0.0------------
1961-07-24 15.0 18.1 11.3- 71.0- 6.0 1.0---- 0.0------------
1961-07-23 15.2 19.3 11.5- 74.8- 4.7 2.0---- 0.0------------
1961-07-22 15.1 20.8 12.6- 83.3- 4.0 1.3---- 8.3------------
1961-07-21 16.0 20.8 12.6- 80.8- 6.0 0.7---- 1.3------------
1961-07-20 16.8 21.8 8.5- 76.5- 4.7 0.3---- 1.9------------
1961-07-19 15.1 20.6 10.0- 84.3- 4.0 0.3---- 2.2------------
1961-07-18 13.3 18.8 9.1- 86.3- 5.0 1.0---- 0.0------------
1961-07-17 16.0 24.0 9.9- 83.0- 2.7 0.0---- 3.9------------
1961-07-16 15.8 22.6 11.5- 85.5- 4.7 1.0---- 0.3------------
1961-07-15 16.9 23.8 9.5- 76.0- 5.0 0.3---- 0.5------------
1961-07-14 15.8 20.0 14.0- 68.8- 4.0 1.0---- 0.0------------
1961-07-13 21.2 28.8 13.5- 74.5- 5.3 2.0---- 2.8------------
1961-07-12 19.0 26.4 10.1- 78.5- 2.7 0.7---- 4.9------------
1961-07-11 16.1 22.4 8.1- 64.0- 1.7 1.0---- 0.2------------
1961-07-10 14.5 19.8 9.8- 72.3- 3.7 1.3---- 0.0------------
1961-07-09 17.0 24.2 9.4- 71.3- 4.0 0.3---- 0.0------------
1961-07-08 15.8 21.0 8.7- 62.3- 1.3 0.0---- 0.0------------
1961-07-07 12.9 18.2 9.1- 79.0- 5.7 1.7---- 0.0------------
1961-07-06 13.3 17.0 8.1- 69.3- 5.0 2.3---- 0.0------------
1961-07-05 15.7 19.5 13.6- 62.5- 5.0 2.0---- 0.0------------
1961-07-04 21.5 28.7 18.1- 75.0- 5.3 1.0---- 1.4------------
1961-07-03 23.2 30.6 13.4- 61.0- 0.0 0.3---- 0.0------------
1961-07-02 21.0 28.0 9.9- 60.8- 0.0 0.7---- 0.0------------
1961-07-01 20.3 25.8 11.6- 60.3- 0.7 1.0---- 0.0------------
1961-06-30 18.7 23.8 10.9- 69.0- 0.0 1.3---- 0.0------------
1961-06-29 15.9 19.4 9.6- 73.3- 7.0 1.0---- 0.0------------
1961-06-28 15.1 22.9 13.4- 80.8- 5.3 1.7---- 4.8------------
1961-06-27 24.6 31.4 16.4- 65.8- 2.7 2.7---- 7.3------------
1961-06-26 21.2 29.8 14.7- 78.8- 3.7 1.0---- 9.6------------
1961-06-25 21.8 28.4 13.1- 60.8- 2.3 1.7---- 0.0------------
1961-06-24 19.5 24.4 11.7- 56.0- 2.0 1.7---- 0.0------------
1961-06-23 18.7 22.8 15.4- 73.8- 7.0 1.0---- 3.6------------
1961-06-22 17.1 23.0 10.4- 60.5- 1.7 0.3---- 2.1------------
1961-06-21 17.8 23.0 6.1- 58.5- 2.3 0.7---- 0.0------------
1961-06-20 14.6 19.8 9.3- 63.3- 0.3 1.7---- 0.0------------
1961-06-19 18.3 22.6 15.3- 81.8- 4.3 1.0---- 0.3------------
1961-06-18 19.7 25.8 10.8- 63.0- 4.0 0.7---- 0.0------------
1961-06-17 16.0 22.0 8.9- 70.3- 1.7 0.7---- 0.0------------
1961-06-16 13.4 18.2 10.6- 78.5- 6.0 1.3---- 0.0------------
402.4 ms

 

Źródłem pochodzenia danych jest Instytut Meteorologii i Gospodarki Wodnej – Państwowy Instytut Badawczy. Dane Instytutu Meteorologii i Gospodarki Wodnej – Państwowego Instytutu Badawczego zostały przetworzone.

Dane źródłowe można odnaleźć na stronie https://dane.imgw.pl